createdAt,value
2022-12-04T00:01:46.361Z,22.26
2022-12-04T00:04:14.435Z,22.33
2022-12-04T00:06:43.341Z,22.28
2022-12-04T00:09:11.261Z,22.26
2022-12-04T00:11:38.990Z,22.26
2022-12-04T00:14:07.627Z,22.25
2022-12-04T00:16:36.007Z,22.26
2022-12-04T00:19:03.795Z,22.23
2022-12-04T00:21:31.369Z,22.23
2022-12-04T00:24:00.244Z,22.26
2022-12-04T00:26:29.134Z,22.28
2022-12-04T00:28:57.123Z,22.27
2022-12-04T00:31:27.519Z,22.24
2022-12-04T00:33:55.091Z,22.20
2022-12-04T00:36:24.413Z,22.30
2022-12-04T00:38:52.117Z,22.20
2022-12-04T00:41:22.707Z,22.24
2022-12-04T00:43:50.426Z,22.24
2022-12-04T00:46:18.369Z,22.28
2022-12-04T00:48:46.002Z,22.31
2022-12-04T00:51:15.475Z,22.29
2022-12-04T00:53:42.975Z,22.17
2022-12-04T00:56:13.228Z,22.19
2022-12-04T00:58:42.604Z,22.24
2022-12-04T01:01:12.541Z,22.22
2022-12-04T01:03:40.578Z,22.23
2022-12-04T01:06:16.961Z,22.25
2022-12-04T01:08:44.454Z,22.30
2022-12-04T01:11:11.918Z,22.28
2022-12-04T01:13:39.378Z,22.26
2022-12-04T01:16:09.087Z,22.30
2022-12-04T01:18:36.168Z,22.33
2022-12-04T01:21:03.695Z,22.25
2022-12-04T01:23:31.133Z,22.24
2022-12-04T01:25:59.250Z,22.22
2022-12-04T01:28:26.985Z,22.28
2022-12-04T01:31:01.933Z,22.33
2022-12-04T01:33:32.521Z,22.30
2022-12-04T01:36:01.067Z,22.27
2022-12-04T01:38:29.335Z,22.25
2022-12-04T01:40:57.402Z,22.31
2022-12-04T01:43:26.881Z,22.31
2022-12-04T01:45:56.317Z,22.27
2022-12-04T01:48:27.807Z,22.30
2022-12-04T01:51:03.022Z,22.33
2022-12-04T01:53:31.468Z,22.33
2022-12-04T01:55:59.310Z,22.30
2022-12-04T01:58:31.446Z,22.29
2022-12-04T02:01:08.172Z,22.34
2022-12-04T02:03:36.922Z,22.33
2022-12-04T02:06:06.304Z,22.31
2022-12-04T02:08:35.251Z,22.26
2022-12-04T02:11:18.886Z,22.25
2022-12-04T02:13:55.604Z,22.26
2022-12-04T02:16:31.208Z,22.28
2022-12-04T02:19:07.982Z,22.26
2022-12-04T02:21:40.332Z,22.28
2022-12-04T02:24:40.707Z,22.34
2022-12-04T02:27:26.821Z,22.09
2022-12-04T02:30:01.165Z,21.65
2022-12-04T02:32:39.928Z,22.01
2022-12-04T02:35:12.641Z,22.14
2022-12-04T02:37:43.410Z,22.11
2022-12-04T02:40:21.962Z,22.14
2022-12-04T02:42:58.373Z,22.20
2022-12-04T02:45:32.543Z,22.16
2022-12-04T02:48:03.421Z,22.23
2022-12-04T02:50:34.264Z,22.26
2022-12-04T02:53:06.463Z,22.19
2022-12-04T02:55:38.062Z,22.17
2022-12-04T02:58:09.633Z,22.03
2022-12-04T03:00:42.294Z,22.12
2022-12-04T03:03:14.284Z,22.17
2022-12-04T03:05:46.939Z,21.39
2022-12-04T03:08:18.380Z,20.91
2022-12-04T03:10:50.164Z,21.53
2022-12-04T03:13:20.750Z,21.64
2022-12-04T03:15:54.252Z,21.68
2022-12-04T03:18:26.577Z,21.71
2022-12-04T03:20:59.001Z,21.91
2022-12-04T03:23:33.438Z,21.90
2022-12-04T03:26:04.550Z,21.93
2022-12-04T03:28:39.766Z,21.93
2022-12-04T03:31:11.297Z,22.07
2022-12-04T03:33:42.473Z,21.99
2022-12-04T03:36:18.812Z,21.97
2022-12-04T03:38:50.455Z,22.07
2022-12-04T03:41:26.989Z,22.07
2022-12-04T03:44:01.884Z,22.08
2022-12-04T03:46:35.723Z,22.00
2022-12-04T03:49:09.139Z,22.02
2022-12-04T03:51:41.361Z,22.04
2022-12-04T03:54:14.838Z,22.01
2022-12-04T03:56:47.511Z,22.01
2022-12-04T03:59:20.531Z,22.02
2022-12-04T04:01:51.700Z,21.95
2022-12-04T04:04:22.812Z,21.99
2022-12-04T04:06:55.392Z,21.99
2022-12-04T04:09:28.990Z,22.01
2022-12-04T04:12:03.151Z,22.05
2022-12-04T04:14:37.848Z,22.04
2022-12-04T04:17:11.653Z,22.10
2022-12-04T04:19:42.537Z,22.03
2022-12-04T04:22:10.822Z,21.99
2022-12-04T04:24:43.626Z,22.10
2022-12-04T04:27:11.605Z,22.09
2022-12-04T04:29:39.808Z,22.14
2022-12-04T04:32:14.617Z,22.04
2022-12-04T04:34:49.918Z,22.17
2022-12-04T04:37:25.902Z,22.04
2022-12-04T04:40:01.358Z,22.09
2022-12-04T04:42:33.058Z,22.17
2022-12-04T04:45:06.291Z,22.18
2022-12-04T04:47:39.318Z,22.19
2022-12-04T04:50:11.086Z,22.20
2022-12-04T04:52:41.645Z,22.19
2022-12-04T04:55:09.750Z,22.21
2022-12-04T04:57:37.940Z,22.16
2022-12-04T05:00:11.640Z,22.19
2022-12-04T05:02:41.298Z,22.22
2022-12-04T05:05:09.545Z,22.17
2022-12-04T05:07:37.236Z,22.18
2022-12-04T05:10:06.055Z,22.25
2022-12-04T05:12:33.604Z,22.28
2022-12-04T05:15:01.375Z,22.17
2022-12-04T05:17:28.991Z,22.19
2022-12-04T05:19:58.284Z,22.19
2022-12-04T05:22:29.528Z,22.22
2022-12-04T05:24:57.521Z,22.28
2022-12-04T05:27:25.882Z,22.23
2022-12-04T05:29:54.309Z,22.28
2022-12-04T05:32:22.629Z,22.26
2022-12-04T05:34:50.988Z,22.29
2022-12-04T05:37:20.339Z,22.26
2022-12-04T05:39:48.061Z,22.30
2022-12-04T05:42:16.020Z,22.27
2022-12-04T05:44:43.505Z,22.27
2022-12-04T05:47:11.227Z,22.26
2022-12-04T05:49:38.756Z,22.27
2022-12-04T05:52:06.702Z,22.28
2022-12-04T05:54:35.843Z,22.29
2022-12-04T05:57:03.918Z,22.25
2022-12-04T05:59:31.601Z,22.26
2022-12-04T06:01:59.264Z,22.34
2022-12-04T06:04:26.856Z,22.33
2022-12-04T06:06:54.985Z,22.30
2022-12-04T06:09:22.437Z,22.33
2022-12-04T06:11:51.368Z,22.27
2022-12-04T06:14:18.833Z,22.34
2022-12-04T06:16:46.730Z,22.31
2022-12-04T06:19:16.568Z,22.33
2022-12-04T06:21:44.468Z,22.36
2022-12-04T06:24:14.975Z,22.35
2022-12-04T06:27:03.977Z,22.33
2022-12-04T06:29:32.615Z,22.32
2022-12-04T06:32:00.112Z,22.38
2022-12-04T06:34:27.747Z,22.37
2022-12-04T06:36:55.946Z,22.33
2022-12-04T06:39:23.522Z,22.34
2022-12-04T06:41:51.121Z,22.38
2022-12-04T06:44:18.727Z,22.39
2022-12-04T06:46:50.190Z,22.36
2022-12-04T06:49:17.889Z,22.37
2022-12-04T06:51:45.458Z,22.36
2022-12-04T06:54:13.087Z,22.36
2022-12-04T06:56:40.767Z,22.26
2022-12-04T06:59:08.297Z,22.37
2022-12-04T07:01:36.110Z,22.41
2022-12-04T07:04:05.713Z,22.32
2022-12-04T07:06:35.331Z,22.37
2022-12-04T07:09:04.496Z,22.37
2022-12-04T07:11:32.649Z,22.35
2022-12-04T07:14:00.151Z,22.45
2022-12-04T07:16:28.868Z,22.47
2022-12-04T07:18:56.881Z,22.50
2022-12-04T07:21:28.012Z,22.49
2022-12-04T07:23:57.850Z,22.53
2022-12-04T07:26:25.326Z,22.50
2022-12-04T07:28:53.701Z,22.48
2022-12-04T07:31:23.479Z,22.46
2022-12-04T07:33:51.495Z,22.44
2022-12-04T07:36:20.784Z,22.45
2022-12-04T07:38:50.400Z,22.43
2022-12-04T07:41:18.191Z,22.45
2022-12-04T07:43:46.419Z,22.42
2022-12-04T07:46:15.955Z,22.43
2022-12-04T07:48:43.614Z,22.44
2022-12-04T07:51:13.123Z,22.41
2022-12-04T07:53:41.140Z,22.45
2022-12-04T07:56:12.351Z,22.44
2022-12-04T07:58:40.249Z,22.45
2022-12-04T08:01:09.151Z,22.48
2022-12-04T08:03:38.931Z,22.43
2022-12-04T08:06:10.053Z,22.45
2022-12-04T08:08:38.305Z,22.46
2022-12-04T08:11:07.300Z,22.41
2022-12-04T08:13:36.239Z,22.44
2022-12-04T08:16:04.859Z,22.39
2022-12-04T08:18:32.587Z,22.44
2022-12-04T08:21:04.606Z,22.42
2022-12-04T08:23:32.393Z,22.40
2022-12-04T08:26:00.426Z,22.45
2022-12-04T08:28:28.357Z,22.40
2022-12-04T08:31:02.790Z,22.35
2022-12-04T08:33:30.450Z,22.39
2022-12-04T08:35:58.302Z,22.39
2022-12-04T08:38:25.858Z,22.41
2022-12-04T08:40:53.413Z,22.40
2022-12-04T08:43:20.994Z,22.44
2022-12-04T08:45:57.403Z,22.40
2022-12-04T08:48:25.275Z,22.42
2022-12-04T08:50:53.068Z,22.37
2022-12-04T08:53:21.360Z,22.43
2022-12-04T08:55:48.878Z,22.39
2022-12-04T08:58:17.050Z,22.40
2022-12-04T09:00:45.249Z,22.41
2022-12-04T09:03:16.275Z,22.41
2022-12-04T09:05:44.164Z,22.43
2022-12-04T09:08:12.685Z,22.41
2022-12-04T09:10:40.537Z,22.44
2022-12-04T09:13:08.739Z,22.41
2022-12-04T09:15:39.279Z,22.42
2022-12-04T09:18:06.902Z,22.45
2022-12-04T09:20:36.495Z,22.43
2022-12-04T09:23:05.578Z,22.44
2022-12-04T09:25:35.876Z,22.49
2022-12-04T09:28:03.878Z,22.42
2022-12-04T09:30:31.377Z,22.49
2022-12-04T09:32:58.919Z,22.44
2022-12-04T09:35:26.469Z,22.44
2022-12-04T09:37:55.487Z,22.49
2022-12-04T09:40:32.062Z,22.51
2022-12-04T09:43:15.644Z,22.52
2022-12-04T09:45:46.806Z,22.54
2022-12-04T09:48:18.525Z,22.54
2022-12-04T09:50:48.818Z,22.52
2022-12-04T09:53:22.761Z,22.51
2022-12-04T09:55:56.202Z,22.52
2022-12-04T09:58:28.613Z,22.53
2022-12-04T10:00:57.760Z,22.53
2022-12-04T10:03:28.365Z,22.52
2022-12-04T10:06:08.268Z,22.50
2022-12-04T10:08:40.000Z,22.52
2022-12-04T10:11:14.840Z,22.56
2022-12-04T10:14:02.449Z,22.53
2022-12-04T10:16:44.179Z,22.53
2022-12-04T10:19:19.264Z,22.56
2022-12-04T10:21:59.050Z,22.55
2022-12-04T10:24:40.058Z,22.56
2022-12-04T10:27:15.074Z,22.58
2022-12-04T10:29:43.950Z,22.54
2022-12-04T10:32:18.695Z,22.57
2022-12-04T10:34:48.793Z,22.59
2022-12-04T10:37:16.935Z,22.59
2022-12-04T10:39:52.598Z,22.58
2022-12-04T10:42:28.095Z,22.56
2022-12-04T10:44:56.106Z,22.55
2022-12-04T10:47:24.733Z,22.52
2022-12-04T10:49:58.989Z,22.56
2022-12-04T10:52:27.240Z,22.57
2022-12-04T10:54:59.116Z,22.59
2022-12-04T10:57:36.850Z,22.61
2022-12-04T11:00:23.145Z,22.59
2022-12-04T11:02:52.449Z,22.59
2022-12-04T11:05:26.934Z,22.61
2022-12-04T11:07:56.132Z,22.59
2022-12-04T11:10:30.393Z,22.61
2022-12-04T11:13:00.028Z,22.60
2022-12-04T11:15:27.684Z,22.58
2022-12-04T11:17:55.652Z,22.61
2022-12-04T11:20:26.936Z,22.59
2022-12-04T11:22:56.954Z,22.63
2022-12-04T11:25:28.165Z,22.59
2022-12-04T11:27:59.674Z,22.61
2022-12-04T11:30:32.948Z,22.62
2022-12-04T11:33:01.635Z,22.62
2022-12-04T11:35:30.390Z,22.62
2022-12-04T11:38:02.379Z,22.65
2022-12-04T11:40:31.643Z,22.62
2022-12-04T11:43:05.053Z,22.65
2022-12-04T11:45:33.761Z,22.63
2022-12-04T11:48:03.758Z,22.62
2022-12-04T11:50:40.086Z,22.64
2022-12-04T11:53:15.688Z,22.64
2022-12-04T11:56:00.103Z,22.64
2022-12-04T11:58:50.881Z,22.65
2022-12-04T12:01:31.588Z,22.65
2022-12-04T12:04:18.095Z,22.65
2022-12-04T12:07:01.352Z,22.67
2022-12-04T12:09:36.905Z,22.61
2022-12-04T12:12:14.491Z,22.56
2022-12-04T12:14:51.337Z,22.65
2022-12-04T12:17:28.161Z,22.68
2022-12-04T12:20:15.371Z,22.68
2022-12-04T12:23:13.043Z,22.67
2022-12-04T12:25:52.369Z,22.70
2022-12-04T12:28:27.071Z,22.70
2022-12-04T12:31:10.110Z,22.72
2022-12-04T12:33:43.262Z,22.75
2022-12-04T12:36:13.348Z,22.72
2022-12-04T12:38:47.899Z,22.73
2022-12-04T12:41:20.055Z,22.71
2022-12-04T12:44:03.317Z,22.69
2022-12-04T12:46:34.804Z,22.72
2022-12-04T12:49:10.161Z,22.73
2022-12-04T12:51:41.158Z,22.72
2022-12-04T12:54:17.988Z,22.73
2022-12-04T12:56:50.972Z,22.72
2022-12-04T12:59:24.406Z,22.69
2022-12-04T13:02:01.046Z,22.71
2022-12-04T13:04:35.579Z,22.66
2022-12-04T13:07:24.069Z,22.75
2022-12-04T13:09:58.311Z,22.76
2022-12-04T13:12:27.139Z,22.73
2022-12-04T13:14:56.359Z,22.73
2022-12-04T13:17:32.525Z,22.73
2022-12-04T13:20:09.938Z,22.76
2022-12-04T13:22:50.161Z,22.75
2022-12-04T13:25:43.859Z,22.71
2022-12-04T13:28:27.589Z,22.68
2022-12-04T13:31:07.406Z,22.71
2022-12-04T13:34:03.970Z,22.76
2022-12-04T13:36:52.537Z,22.77
2022-12-04T13:39:48.471Z,22.75
2022-12-04T13:42:24.788Z,22.78
2022-12-04T13:44:57.871Z,22.76
2022-12-04T13:47:30.338Z,22.76
2022-12-04T13:50:21.698Z,22.78
2022-12-04T13:52:49.421Z,22.77
2022-12-04T13:55:29.200Z,22.78
2022-12-04T13:57:59.821Z,22.79
2022-12-04T14:00:31.714Z,22.78
2022-12-04T14:03:05.143Z,22.79
2022-12-04T14:05:43.066Z,22.79
2022-12-04T14:08:24.167Z,22.78
2022-12-04T14:11:00.161Z,22.80
2022-12-04T14:13:31.214Z,22.82
2022-12-04T14:16:06.127Z,22.80
2022-12-04T14:18:35.276Z,22.74
2022-12-04T14:21:06.022Z,22.81
2022-12-04T14:23:37.809Z,22.81
2022-12-04T14:26:06.377Z,22.81
2022-12-04T14:28:42.366Z,22.82
2022-12-04T14:31:31.361Z,22.81
2022-12-04T14:34:04.558Z,22.79
2022-12-04T14:36:40.981Z,22.78
2022-12-04T14:39:17.938Z,22.77
2022-12-04T14:41:45.631Z,22.79
2022-12-04T14:44:25.759Z,22.79
2022-12-04T14:46:57.673Z,22.77
2022-12-04T14:49:40.603Z,21.95
2022-12-04T14:52:15.152Z,22.51
2022-12-04T14:54:55.027Z,22.59
2022-12-04T14:57:39.654Z,22.66
2022-12-04T15:00:16.641Z,22.70
2022-12-04T15:02:46.073Z,22.74
2022-12-04T15:05:20.038Z,22.76
2022-12-04T15:07:49.975Z,22.76
2022-12-04T15:10:21.174Z,22.76
2022-12-04T15:12:51.920Z,22.77
2022-12-04T15:15:21.171Z,22.77
2022-12-04T15:17:59.686Z,22.78
2022-12-04T15:20:37.427Z,22.69
2022-12-04T15:23:06.818Z,22.67
2022-12-04T15:25:40.336Z,22.73
2022-12-04T15:28:13.149Z,22.73
2022-12-04T15:30:42.208Z,22.76
2022-12-04T15:33:19.384Z,22.78
2022-12-04T15:35:54.402Z,22.81
2022-12-04T15:38:22.109Z,22.80
2022-12-04T15:40:52.403Z,22.79
2022-12-04T15:43:27.831Z,22.83
2022-12-04T15:45:55.997Z,22.81
2022-12-04T15:48:28.003Z,22.83
2022-12-04T15:50:59.283Z,22.85
2022-12-04T15:53:29.853Z,22.85
2022-12-04T15:56:00.144Z,22.83
2022-12-04T15:58:29.829Z,22.82
2022-12-04T16:00:58.413Z,22.85
2022-12-04T16:03:28.922Z,22.83
2022-12-04T16:06:13.777Z,22.85
2022-12-04T16:08:44.082Z,22.81
2022-12-04T16:11:28.556Z,22.84
2022-12-04T16:14:05.742Z,22.86
2022-12-04T16:16:33.911Z,22.86
2022-12-04T16:19:05.786Z,22.86
2022-12-04T16:21:35.792Z,22.86
2022-12-04T16:24:04.776Z,22.84
2022-12-04T16:26:33.617Z,22.85
2022-12-04T16:29:01.977Z,22.88
2022-12-04T16:31:29.691Z,22.88
2022-12-04T16:33:57.396Z,22.86
2022-12-04T16:36:24.906Z,22.88
2022-12-04T16:38:56.386Z,22.90
2022-12-04T16:41:23.877Z,22.89
2022-12-04T16:43:54.523Z,22.88
2022-12-04T16:46:24.729Z,22.90
2022-12-04T16:48:52.300Z,22.91
2022-12-04T16:51:22.830Z,22.91
2022-12-04T16:53:51.149Z,22.89
2022-12-04T16:56:20.445Z,22.88
2022-12-04T16:58:48.486Z,22.90
2022-12-04T17:01:21.773Z,22.91
2022-12-04T17:03:49.833Z,22.92
2022-12-04T17:06:18.077Z,22.92
2022-12-04T17:08:45.721Z,22.91
2022-12-04T17:11:15.350Z,22.91
2022-12-04T17:13:44.074Z,22.91
2022-12-04T17:16:14.867Z,22.91
2022-12-04T17:18:42.763Z,22.93
2022-12-04T17:21:12.703Z,22.88
2022-12-04T17:23:41.024Z,22.91
2022-12-04T17:26:10.288Z,22.93
2022-12-04T17:28:38.276Z,22.94
2022-12-04T17:31:13.944Z,22.92
2022-12-04T17:33:41.777Z,22.94
2022-12-04T17:36:10.199Z,22.93
2022-12-04T17:38:38.501Z,22.90
2022-12-04T17:41:06.158Z,22.91
2022-12-04T17:43:34.383Z,22.91
2022-12-04T17:46:02.370Z,22.90
2022-12-04T17:48:31.749Z,22.89
2022-12-04T17:51:07.518Z,22.84
2022-12-04T17:53:35.554Z,22.91
2022-12-04T17:56:05.297Z,22.90
2022-12-04T17:58:33.941Z,22.91
2022-12-04T18:01:02.861Z,22.92
2022-12-04T18:03:32.045Z,22.91
2022-12-04T18:05:59.762Z,22.92
2022-12-04T18:08:27.618Z,22.92
2022-12-04T18:10:57.311Z,22.93
2022-12-04T18:13:24.950Z,22.92
2022-12-04T18:15:52.853Z,22.95
2022-12-04T18:18:20.365Z,22.94
2022-12-04T18:21:00.398Z,22.96
2022-12-04T18:23:28.628Z,22.94
2022-12-04T18:25:56.389Z,22.95
2022-12-04T18:28:24.110Z,22.92
2022-12-04T18:30:52.746Z,22.94
2022-12-04T18:33:20.816Z,22.94
2022-12-04T18:35:55.557Z,22.96
2022-12-04T18:38:23.105Z,22.95
2022-12-04T18:40:51.117Z,22.96
2022-12-04T18:43:18.977Z,22.96
2022-12-04T18:45:46.859Z,22.96
2022-12-04T18:48:15.409Z,22.98
2022-12-04T18:50:42.903Z,22.97
2022-12-04T18:53:11.905Z,22.95
2022-12-04T18:55:39.926Z,22.97
2022-12-04T18:58:07.385Z,22.98
2022-12-04T19:00:34.989Z,22.93
2022-12-04T19:03:02.453Z,22.97
2022-12-04T19:05:29.968Z,22.96
2022-12-04T19:07:58.141Z,22.96
2022-12-04T19:10:28.085Z,22.96
2022-12-04T19:12:55.850Z,22.95
2022-12-04T19:15:23.397Z,22.96
2022-12-04T19:17:50.802Z,22.96
2022-12-04T19:20:18.999Z,22.96
2022-12-04T19:22:46.514Z,22.97
2022-12-04T19:25:14.106Z,22.96
2022-12-04T19:27:43.636Z,22.98
2022-12-04T19:30:11.862Z,22.96
2022-12-04T19:32:39.341Z,22.95
2022-12-04T19:35:07.421Z,22.98
2022-12-04T19:37:41.208Z,22.98
2022-12-04T19:40:10.394Z,22.96
2022-12-04T19:42:38.032Z,22.95
2022-12-04T19:45:07.835Z,22.96
2022-12-04T19:47:35.357Z,22.98
2022-12-04T19:50:03.330Z,22.98
2022-12-04T19:52:30.988Z,22.96
2022-12-04T19:54:58.432Z,22.96
2022-12-04T19:57:26.022Z,22.96
2022-12-04T19:59:53.450Z,22.98
2022-12-04T20:02:22.535Z,22.98
2022-12-04T20:04:50.079Z,22.97
2022-12-04T20:07:17.564Z,22.98
2022-12-04T20:09:50.326Z,22.98
2022-12-04T20:12:19.738Z,22.95
2022-12-04T20:14:47.195Z,22.94
2022-12-04T20:17:15.015Z,22.96
2022-12-04T20:19:44.008Z,22.96
2022-12-04T20:22:12.075Z,22.95
2022-12-04T20:24:39.586Z,22.96
2022-12-04T20:27:07.032Z,22.94
2022-12-04T20:29:34.498Z,22.94
2022-12-04T20:32:02.072Z,22.95
2022-12-04T20:34:29.633Z,22.94
2022-12-04T20:36:58.629Z,22.94
2022-12-04T20:39:26.638Z,22.95
2022-12-04T20:41:54.759Z,22.96
2022-12-04T20:44:22.754Z,22.94
2022-12-04T20:46:50.209Z,22.94
2022-12-04T20:49:21.928Z,22.93
2022-12-04T20:51:50.992Z,22.93
2022-12-04T20:54:21.954Z,22.93
2022-12-04T20:56:50.321Z,22.93
2022-12-04T20:59:19.223Z,22.93
2022-12-04T21:01:47.906Z,22.92
2022-12-04T21:04:16.399Z,22.94
2022-12-04T21:06:44.694Z,22.94
2022-12-04T21:09:14.212Z,22.92
2022-12-04T21:11:45.580Z,22.92
2022-12-04T21:14:15.088Z,22.92
2022-12-04T21:16:42.707Z,22.94
2022-12-04T21:19:11.632Z,22.92
2022-12-04T21:21:39.321Z,22.91
2022-12-04T21:24:08.828Z,22.94
2022-12-04T21:26:36.482Z,22.93
2022-12-04T21:29:06.472Z,22.94
2022-12-04T21:31:35.113Z,22.94
2022-12-04T21:34:05.237Z,22.93
2022-12-04T21:36:32.461Z,22.94
2022-12-04T21:39:00.136Z,22.93
2022-12-04T21:41:27.872Z,22.95
2022-12-04T21:43:55.354Z,22.93
2022-12-04T21:46:24.382Z,22.95
2022-12-04T21:48:51.941Z,22.94
2022-12-04T21:51:40.297Z,22.93
2022-12-04T21:54:07.008Z,22.94
2022-12-04T21:56:34.663Z,22.95
2022-12-04T21:59:02.229Z,22.93
2022-12-04T22:01:31.326Z,22.94
2022-12-04T22:03:58.834Z,22.95
2022-12-04T22:06:27.034Z,22.94
2022-12-04T22:08:55.417Z,22.94
2022-12-04T22:11:23.034Z,22.95
2022-12-04T22:13:51.127Z,22.94
2022-12-04T22:16:19.390Z,22.92
2022-12-04T22:18:48.393Z,22.95
2022-12-04T22:21:16.591Z,22.94
2022-12-04T22:23:44.068Z,22.94
2022-12-04T22:26:13.019Z,22.95
2022-12-04T22:28:40.922Z,22.95
2022-12-04T22:31:10.234Z,22.93
2022-12-04T22:33:38.124Z,22.93
2022-12-04T22:36:08.930Z,22.92
2022-12-04T22:38:47.265Z,22.93
2022-12-04T22:41:27.706Z,22.93
2022-12-04T22:43:55.641Z,22.93
2022-12-04T22:46:23.195Z,22.93
2022-12-04T22:48:50.720Z,22.93
2022-12-04T22:51:21.266Z,22.92
2022-12-04T22:53:50.435Z,22.92
2022-12-04T22:56:19.485Z,22.93
2022-12-04T22:58:46.961Z,22.93
2022-12-04T23:01:16.663Z,22.93
2022-12-04T23:03:44.277Z,22.91
2022-12-04T23:06:12.031Z,22.92
2022-12-04T23:08:42.232Z,22.94
2022-12-04T23:11:11.874Z,22.90
2022-12-04T23:13:39.298Z,22.94
2022-12-04T23:16:09.746Z,22.92
2022-12-04T23:18:37.855Z,22.94
2022-12-04T23:21:08.120Z,22.94
2022-12-04T23:23:36.939Z,22.94
2022-12-04T23:26:08.408Z,22.93
2022-12-04T23:28:36.319Z,22.92
2022-12-04T23:31:04.931Z,22.94
2022-12-04T23:33:32.968Z,22.93
2022-12-04T23:36:02.204Z,22.94
2022-12-04T23:38:30.095Z,22.95
2022-12-04T23:41:01.706Z,22.93
2022-12-04T23:43:31.075Z,22.95
2022-12-04T23:45:58.989Z,22.94
2022-12-04T23:48:26.895Z,22.95
2022-12-04T23:50:54.933Z,22.93
2022-12-04T23:53:23.460Z,22.92
2022-12-04T23:55:57.738Z,22.93
2022-12-04T23:58:26.055Z,22.93
